Grissom AFB, Indiana
Current Conditions -  °F | °C
As of 2:58 AM on Saturday 29 Nov 2014 (Local Time) from KGUS Reporting Station
Scattered Clouds Scattered Clouds  
Wind Chill: 24°   Ceiling: Unl
Heat Index: 31°   Visibility: 10mi
Dew Point: 27°   Wind: 8mph
Humidity: 83%   Direction: 170°S
Pressure: 29.94"   Gusts: NA
Location:  40.66°N, 86.15°W
Report Text: KGUS 290758Z AUTO 17007KT 10SM SCT140 00/M03 A2994 RMK AO2 SLP150 T10031029
Loading
Personal Weather Stations






























Interactive Weather Map New forecast layout! Learn more

10-Day Weather Forecast

Advertisements
Track Severe Weather on mobile